Willacoochee, GA (31650)

2:22 PM EDT on August 28, 2016 (GMT -0400)
Baymeadows Lake | | Change Station

Elev 256 ft 31.45 °N, 82.91 °W | Updated 14 seconds ago

Scattered Clouds
Scattered Clouds
87.1 °F
Feels Like 95 °F
N
3.7
Wind Variable Wind from South
Gusts 8.1 mph

Today
High -- | Low -- °F
--% Chance of Precip.
Yesterday
High -- | Low -- °F
Precip. -- in
Pressure 30.07 in
Visibility 10.0 miles
Clouds Scattered Clouds 5000 ft
Scattered Clouds 6500 ft
Heat Index 95 °F
Dew Point 74 °F
Humidity 64%
Rainfall 0.00 in
Snow Depth Not available.
7:06 AM 7:59 PM
Waning Crescent, 14% visible
METAR KDQH 281815Z AUTO 08009G14KT 060V120 10SM SCT050 SCT065 33/20 A3007 RMK AO2 LTG DSNT E
Pressure 30.07 in
Visibility 10.0 miles
Clouds Scattered Clouds 5000 ft
Scattered Clouds 6500 ft
Heat Index 95 °F
Dew Point 74 °F
Humidity 64%
Rainfall 0.00 in
Snow Depth Not available.
7:06 AM 7:59 PM
Waning Crescent, 14% visible
METAR KDQH 281815Z AUTO 08009G14KT 060V120 10SM SCT050 SCT065 33/20 A3007 RMK AO2 LTG DSNT E

10-Day Weather Forecast

Almanac

Astronomy

Aug. 28, 2016 Rise Set
Actual Time
Civil Twilight
Nautical Twilight
Astronomical Twilight
Moon
Length of Visible Light
Length of Day
Tomorrow will be .
, % of the Moon is Illuminated

Today's Extremes

State Highs State Lows

Community

WunderPhotos

Upload Photos

1,935,644 photos uploaded!

WunderBlog® & News

Nearby

Air Quality

  Air Quality AQ Index Pollutant
Not available.

Snow Depth

Station Depth Elevation

Earthquake Activity

City Distance Mag. Time & Date
Minimum magnitude displayed is 2.5.

Coastal Water Temperatures

Place Temperature

Stations

Nearby Weather Stations

Station Location Temp. Windchill Dew Point Humidity Wind Precip. Elev Updated Type
                   

Watches & Warnings

There are currently no watches in effect.